createdAt,value
2023-04-15T00:00:59.586Z,4.80
2023-04-15T00:03:30.985Z,4.13
2023-04-15T00:05:59.999Z,4.03
2023-04-15T00:08:28.890Z,4.37
2023-04-15T00:10:59.479Z,4.20
2023-04-15T00:13:29.669Z,4.27
2023-04-15T00:15:58.238Z,4.50
2023-04-15T00:18:26.927Z,4.70
2023-04-15T00:20:55.402Z,4.23
2023-04-15T00:23:23.756Z,4.70
2023-04-15T00:25:52.334Z,4.20
2023-04-15T00:28:21.683Z,4.13
2023-04-15T00:30:51.929Z,4.47
2023-04-15T00:33:20.661Z,3.40
2023-04-15T00:35:49.102Z,3.73
2023-04-15T00:38:17.799Z,4.27
2023-04-15T00:40:46.344Z,3.30
2023-04-15T00:43:14.950Z,4.27
2023-04-15T00:45:43.531Z,4.43
2023-04-15T00:48:14.080Z,3.77
2023-04-15T00:50:42.478Z,3.90
2023-04-15T00:53:10.941Z,3.57
2023-04-15T00:55:39.477Z,4.13
2023-04-15T00:58:08.186Z,3.87
2023-04-15T01:00:36.684Z,4.53
2023-04-15T01:03:05.223Z,4.57
2023-04-15T01:05:35.654Z,4.37
2023-04-15T01:08:04.604Z,5.20
2023-04-15T01:10:33.217Z,4.30
2023-04-15T01:13:02.069Z,4.43
2023-04-15T01:15:30.746Z,4.07
2023-04-15T01:17:59.785Z,4.37
2023-04-15T01:20:28.666Z,5.10
2023-04-15T01:22:59.008Z,4.80
2023-04-15T01:25:33.357Z,3.90
2023-04-15T01:28:02.283Z,4.40
2023-04-15T01:30:30.814Z,4.83
2023-04-15T01:32:59.356Z,4.40
2023-04-15T01:35:28.413Z,3.93
2023-04-15T01:37:58.287Z,4.13
2023-04-15T01:40:26.702Z,4.27
2023-04-15T01:42:56.692Z,4.30
2023-04-15T01:45:25.169Z,4.57
2023-04-15T01:47:54.349Z,4.50
2023-04-15T01:50:23.219Z,4.60
2023-04-15T01:52:52.148Z,4.43
2023-04-15T01:55:20.411Z,4.63
2023-04-15T01:57:48.871Z,4.00
2023-04-15T02:00:18.841Z,4.53
2023-04-15T02:02:47.505Z,4.77
2023-04-15T02:05:16.185Z,4.60
2023-04-15T02:07:44.493Z,4.57
2023-04-15T02:10:13.680Z,4.57
2023-04-15T02:12:42.224Z,4.67
2023-04-15T02:15:11.288Z,4.60
2023-04-15T02:17:41.144Z,3.63
2023-04-15T02:20:10.716Z,4.37
2023-04-15T02:22:39.238Z,4.70
2023-04-15T02:25:08.312Z,4.30
2023-04-15T02:27:37.664Z,4.37
2023-04-15T02:30:07.356Z,4.30
2023-04-15T02:32:35.902Z,4.70
2023-04-15T02:35:06.682Z,4.40
2023-04-15T02:37:37.085Z,4.17
2023-04-15T02:40:05.750Z,4.77
2023-04-15T02:42:34.209Z,4.80
2023-04-15T02:45:02.299Z,4.30
2023-04-15T02:47:30.843Z,4.10
2023-04-15T02:50:01.067Z,4.63
2023-04-15T02:52:31.192Z,4.80
2023-04-15T02:55:00.815Z,4.50
2023-04-15T02:57:29.709Z,4.67
2023-04-15T02:59:58.119Z,4.37
2023-04-15T03:02:26.425Z,4.97
2023-04-15T03:04:55.251Z,4.33
2023-04-15T03:07:23.709Z,3.87
2023-04-15T03:09:53.621Z,4.90
2023-04-15T03:12:21.969Z,4.87
2023-04-15T03:14:50.387Z,4.57
2023-04-15T03:17:18.813Z,4.47
2023-04-15T03:19:47.278Z,5.53
2023-04-15T03:22:15.850Z,4.33
2023-04-15T03:24:44.263Z,4.20
2023-04-15T03:27:14.005Z,4.17
2023-04-15T03:29:42.473Z,4.60
2023-04-15T03:32:10.814Z,4.07
2023-04-15T03:34:39.191Z,3.67
2023-04-15T03:37:09.119Z,4.40
2023-04-15T03:39:37.663Z,4.33
2023-04-15T03:42:06.191Z,2.90
2023-04-15T03:44:36.195Z,2.30
2023-04-15T03:47:04.597Z,3.43
2023-04-15T03:49:33.003Z,4.07
2023-04-15T03:52:01.476Z,4.13
2023-04-15T03:54:30.085Z,4.40
2023-04-15T03:56:58.398Z,4.57
2023-04-15T03:59:26.795Z,4.40
2023-04-15T04:01:56.672Z,4.53
2023-04-15T04:04:25.385Z,4.27
2023-04-15T04:06:53.973Z,3.53
2023-04-15T04:09:22.332Z,4.57
2023-04-15T04:11:50.808Z,4.27
2023-04-15T04:14:19.219Z,4.60
2023-04-15T04:16:48.156Z,3.97
2023-04-15T04:19:19.951Z,3.70
2023-04-15T04:21:48.316Z,3.53
2023-04-15T04:24:16.916Z,4.17
2023-04-15T04:26:45.373Z,3.07
2023-04-15T04:29:13.868Z,4.27
2023-04-15T04:31:42.316Z,4.87
2023-04-15T04:34:10.899Z,4.10
2023-04-15T04:36:40.668Z,4.10
2023-04-15T04:39:09.807Z,4.70
2023-04-15T04:41:38.324Z,4.67
2023-04-15T04:44:07.152Z,4.77
2023-04-15T04:46:35.519Z,4.60
2023-04-15T04:49:04.061Z,5.03
2023-04-15T04:51:32.990Z,5.37
2023-04-15T04:54:03.665Z,5.10
2023-04-15T04:56:34.288Z,5.17
2023-04-15T04:59:03.012Z,4.70
2023-04-15T05:01:31.652Z,5.37
2023-04-15T05:04:00.812Z,4.27
2023-04-15T05:06:30.638Z,5.27
2023-04-15T05:08:59.777Z,5.33
2023-04-15T05:11:31.747Z,6.27
2023-04-15T05:14:02.210Z,5.70
2023-04-15T05:16:30.790Z,5.57
2023-04-15T05:18:58.994Z,5.00
2023-04-15T05:21:27.777Z,5.70
2023-04-15T05:23:56.380Z,6.47
2023-04-15T05:26:24.988Z,5.57
2023-04-15T05:28:55.129Z,5.87
2023-04-15T05:31:23.712Z,5.80
2023-04-15T05:33:52.175Z,6.23
2023-04-15T05:36:21.437Z,6.03
2023-04-15T05:38:49.916Z,5.50
2023-04-15T05:41:19.907Z,5.30
2023-04-15T05:43:48.455Z,5.90
2023-04-15T05:46:18.370Z,6.77
2023-04-15T05:48:47.035Z,5.97
2023-04-15T05:51:15.581Z,5.80
2023-04-15T05:53:44.084Z,6.50
2023-04-15T05:56:12.409Z,6.93
2023-04-15T05:58:41.130Z,6.13
2023-04-15T06:01:09.607Z,6.37
2023-04-15T06:03:39.993Z,6.43
2023-04-15T06:06:08.782Z,6.53
2023-04-15T06:08:37.324Z,6.23
2023-04-15T06:11:05.980Z,6.23
2023-04-15T06:13:34.998Z,6.33
2023-04-15T06:16:04.095Z,6.73
2023-04-15T06:18:32.699Z,7.27
2023-04-15T06:21:02.363Z,6.37
2023-04-15T06:23:32.149Z,6.57
2023-04-15T06:26:01.143Z,6.63
2023-04-15T06:28:30.813Z,7.43
2023-04-15T06:30:59.223Z,6.97
2023-04-15T06:33:27.893Z,7.07
2023-04-15T06:35:56.249Z,7.40
2023-04-15T06:38:26.505Z,7.23
2023-04-15T06:40:54.994Z,8.00
2023-04-15T06:43:23.429Z,7.30
2023-04-15T06:45:53.246Z,8.07
2023-04-15T06:48:27.889Z,7.97
2023-04-15T06:50:58.464Z,8.60
2023-04-15T06:53:28.552Z,8.87
2023-04-15T06:55:56.955Z,9.77
2023-04-15T06:58:25.826Z,8.77
2023-04-15T07:00:56.086Z,8.50
2023-04-15T07:03:24.488Z,9.20
2023-04-15T07:05:53.539Z,9.23
2023-04-15T07:08:22.258Z,9.27
2023-04-15T07:10:52.357Z,9.83
2023-04-15T07:13:21.060Z,9.57
2023-04-15T07:15:49.682Z,9.07
2023-04-15T07:18:18.079Z,10.30
2023-04-15T07:20:48.100Z,10.33
2023-04-15T07:23:16.595Z,10.57
2023-04-15T07:25:45.047Z,9.90
2023-04-15T07:28:15.252Z,9.90
2023-04-15T07:30:43.635Z,9.63
2023-04-15T07:33:12.412Z,8.97
2023-04-15T07:35:40.822Z,9.43
2023-04-15T07:38:09.229Z,9.97
2023-04-15T07:40:37.702Z,9.17
2023-04-15T07:43:06.228Z,9.47
2023-04-15T07:45:36.367Z,9.03
2023-04-15T07:48:05.019Z,9.87
2023-04-15T07:50:33.572Z,9.67
2023-04-15T07:53:02.442Z,9.90
2023-04-15T07:55:31.085Z,9.43
2023-04-15T07:57:59.767Z,9.17
2023-04-15T08:00:28.217Z,9.33
2023-04-15T08:02:59.677Z,10.57
2023-04-15T08:05:28.237Z,10.23
2023-04-15T08:07:56.560Z,10.37
2023-04-15T08:10:25.043Z,10.23
2023-04-15T08:12:54.484Z,9.97
2023-04-15T08:15:23.586Z,10.20
2023-04-15T08:17:51.806Z,9.20
2023-04-15T08:20:21.523Z,10.20
2023-04-15T08:22:52.145Z,9.17
2023-04-15T08:25:21.597Z,9.80
2023-04-15T08:27:50.207Z,8.97
2023-04-15T08:30:18.622Z,8.93
2023-04-15T08:32:48.324Z,10.10
2023-04-15T08:35:16.601Z,8.97
2023-04-15T08:37:46.395Z,10.07
2023-04-15T08:40:14.972Z,10.07
2023-04-15T08:42:44.915Z,10.53
2023-04-15T08:45:14.020Z,9.67
2023-04-15T08:47:42.531Z,9.07
2023-04-15T08:50:12.206Z,9.00
2023-04-15T08:52:40.758Z,8.57
2023-04-15T08:55:11.680Z,10.47
2023-04-15T08:57:40.123Z,9.50
2023-04-15T09:00:09.431Z,9.10
2023-04-15T09:02:38.088Z,9.93
2023-04-15T09:05:07.890Z,9.90
2023-04-15T09:07:36.672Z,9.07
2023-04-15T09:10:06.591Z,9.57
2023-04-15T09:12:37.656Z,8.87
2023-04-15T09:15:06.614Z,10.00
2023-04-15T09:17:35.646Z,9.47
2023-04-15T09:20:10.797Z,9.23
2023-04-15T09:22:39.941Z,8.70
2023-04-15T09:25:27.930Z,9.10
2023-04-15T09:27:58.423Z,8.50
2023-04-15T09:30:27.037Z,9.27
2023-04-15T09:32:56.622Z,8.53
2023-04-15T09:35:25.631Z,8.70
2023-04-15T09:37:54.391Z,8.47
2023-04-15T09:40:35.954Z,10.33
2023-04-15T09:43:06.631Z,9.67
2023-04-15T09:45:35.818Z,8.77
2023-04-15T09:48:17.278Z,8.23
2023-04-15T09:50:46.022Z,8.90
2023-04-15T09:53:17.839Z,9.70
2023-04-15T09:55:47.081Z,9.17
2023-04-15T09:58:24.429Z,9.73
2023-04-15T10:00:53.710Z,8.73
2023-04-15T10:03:23.127Z,7.60
2023-04-15T10:05:52.967Z,8.83
2023-04-15T10:08:25.138Z,8.17
2023-04-15T10:10:53.802Z,8.73
2023-04-15T10:13:24.402Z,10.27
2023-04-15T10:15:56.991Z,8.23
2023-04-15T10:18:27.982Z,8.43
2023-04-15T10:20:56.699Z,9.27
2023-04-15T10:23:25.854Z,10.37
2023-04-15T10:25:54.954Z,9.77
2023-04-15T10:28:24.735Z,8.90
2023-04-15T10:30:53.889Z,8.80
2023-04-15T10:33:24.167Z,9.53
2023-04-15T10:35:54.887Z,8.93
2023-04-15T10:38:37.433Z,9.90
2023-04-15T10:41:23.719Z,9.47
2023-04-15T10:43:54.583Z,9.03
2023-04-15T10:46:29.228Z,9.33
2023-04-15T10:48:57.804Z,8.97
2023-04-15T10:51:31.593Z,8.80
2023-04-15T10:54:01.186Z,8.50
2023-04-15T10:56:31.427Z,9.30
2023-04-15T10:59:02.696Z,8.83
2023-04-15T11:01:50.024Z,9.73
2023-04-15T11:04:43.213Z,9.77
2023-04-15T11:07:11.371Z,9.20
2023-04-15T11:09:39.764Z,9.27
2023-04-15T11:12:09.811Z,9.37
2023-04-15T11:14:43.363Z,9.53
2023-04-15T11:17:11.908Z,8.97
2023-04-15T11:19:40.896Z,9.00
2023-04-15T11:22:10.096Z,9.87
2023-04-15T11:24:38.406Z,9.43
2023-04-15T11:27:07.281Z,8.93
2023-04-15T11:29:35.957Z,9.23
2023-04-15T11:32:10.422Z,10.13
2023-04-15T11:34:39.019Z,8.80
2023-04-15T11:37:08.017Z,9.27
2023-04-15T11:39:36.635Z,10.47
2023-04-15T11:42:05.280Z,9.77
2023-04-15T11:44:33.740Z,9.27
2023-04-15T11:47:02.125Z,8.87
2023-04-15T11:49:33.992Z,9.83
2023-04-15T11:52:02.533Z,9.27
2023-04-15T11:54:30.970Z,8.93
2023-04-15T11:57:00.203Z,9.27
2023-04-15T11:59:38.956Z,9.07
2023-04-15T12:02:14.364Z,8.27
2023-04-15T12:04:44.189Z,9.63
2023-04-15T12:07:12.802Z,8.43
2023-04-15T12:09:43.104Z,9.30
2023-04-15T12:12:12.555Z,7.87
2023-04-15T12:14:42.366Z,9.53
2023-04-15T12:17:13.271Z,8.50
2023-04-15T12:19:45.445Z,8.77
2023-04-15T12:22:15.256Z,8.40
2023-04-15T12:24:47.057Z,8.30
2023-04-15T12:27:16.598Z,8.67
2023-04-15T12:29:45.589Z,8.17
2023-04-15T12:32:15.110Z,8.33
2023-04-15T12:34:51.904Z,8.60
2023-04-15T12:37:20.577Z,8.60
2023-04-15T12:39:50.214Z,8.43
2023-04-15T12:42:19.275Z,8.33
2023-04-15T12:44:48.054Z,8.17
2023-04-15T12:47:16.519Z,7.73
2023-04-15T12:49:46.140Z,8.20
2023-04-15T12:52:15.097Z,8.20
2023-04-15T12:54:43.148Z,7.73
2023-04-15T12:57:11.480Z,7.83
2023-04-15T12:59:39.972Z,7.47
2023-04-15T13:02:08.932Z,6.40
2023-04-15T13:04:37.670Z,6.63
2023-04-15T13:07:07.483Z,6.93
2023-04-15T13:09:36.001Z,6.50
2023-04-15T13:12:05.425Z,7.03
2023-04-15T13:14:33.918Z,6.10
2023-04-15T13:17:02.859Z,6.33
2023-04-15T13:19:31.460Z,6.23
2023-04-15T13:21:59.775Z,6.70
2023-04-15T13:24:29.311Z,6.03
2023-04-15T13:26:59.237Z,6.03
2023-04-15T13:29:27.690Z,6.27
2023-04-15T13:31:56.250Z,6.63
2023-04-15T13:34:24.716Z,5.73
2023-04-15T13:36:53.343Z,6.33
2023-04-15T13:39:21.708Z,5.60
2023-04-15T13:41:51.253Z,6.30
2023-04-15T13:44:21.486Z,6.67
2023-04-15T13:46:50.700Z,6.60
2023-04-15T13:49:19.223Z,5.93
2023-04-15T13:51:47.538Z,6.37
2023-04-15T13:54:15.668Z,6.07
2023-04-15T13:56:44.123Z,6.33
2023-04-15T13:59:15.203Z,7.00
2023-04-15T14:01:44.976Z,6.33
2023-04-15T14:04:13.290Z,6.83
2023-04-15T14:06:41.778Z,7.03
2023-04-15T14:09:10.134Z,6.43
2023-04-15T14:11:40.486Z,7.00
2023-04-15T14:14:08.951Z,6.87
2023-04-15T14:16:38.591Z,6.80
2023-04-15T14:19:07.372Z,7.20
2023-04-15T14:21:36.149Z,7.27
2023-04-15T14:24:04.546Z,6.50
2023-04-15T14:26:33.021Z,6.43
2023-04-15T14:29:01.385Z,5.63
2023-04-15T14:31:29.780Z,6.40
2023-04-15T14:33:59.572Z,6.70
2023-04-15T14:36:28.490Z,6.53
2023-04-15T14:38:56.988Z,6.20
2023-04-15T14:41:25.474Z,6.70
2023-04-15T14:43:53.902Z,6.50
2023-04-15T14:46:22.385Z,6.07
2023-04-15T14:48:51.103Z,6.57
2023-04-15T14:51:21.019Z,6.90
2023-04-15T14:53:49.401Z,6.63
2023-04-15T14:56:17.552Z,7.10
2023-04-15T14:58:45.838Z,7.30
2023-04-15T15:01:14.417Z,6.90
2023-04-15T15:03:43.269Z,6.83
2023-04-15T15:06:11.947Z,7.03
2023-04-15T15:08:41.417Z,6.83
2023-04-15T15:11:10.124Z,7.17
2023-04-15T15:13:38.467Z,6.53
2023-04-15T15:16:07.242Z,7.03
2023-04-15T15:18:35.790Z,6.60
2023-04-15T15:21:04.264Z,6.67
2023-04-15T15:23:32.882Z,6.50
2023-04-15T15:26:02.711Z,6.20
2023-04-15T15:28:31.082Z,6.33
2023-04-15T15:30:59.289Z,6.53
2023-04-15T15:33:29.015Z,6.30
2023-04-15T15:35:59.183Z,7.40
2023-04-15T15:38:27.568Z,6.40
2023-04-15T15:40:56.054Z,5.90
2023-04-15T15:43:25.828Z,6.40
2023-04-15T15:45:55.682Z,6.50
2023-04-15T15:48:24.355Z,6.60
2023-04-15T15:50:53.598Z,6.63
2023-04-15T15:53:24.313Z,7.13
2023-04-15T15:55:53.837Z,6.73
2023-04-15T15:58:22.803Z,6.57
2023-04-15T16:00:52.411Z,6.67
2023-04-15T16:03:21.057Z,6.83
2023-04-15T16:05:49.647Z,6.43
2023-04-15T16:08:18.457Z,7.37
2023-04-15T16:10:46.866Z,7.53
2023-04-15T16:13:15.275Z,7.20
2023-04-15T16:15:43.290Z,7.20
2023-04-15T16:18:15.353Z,6.80
2023-04-15T16:20:44.017Z,7.83
2023-04-15T16:23:14.428Z,7.47
2023-04-15T16:25:43.583Z,6.47
2023-04-15T16:28:23.036Z,7.03
2023-04-15T16:30:54.724Z,7.50
2023-04-15T16:33:24.660Z,7.80
2023-04-15T16:35:53.101Z,6.83
2023-04-15T16:38:21.582Z,7.40
2023-04-15T16:40:49.957Z,6.90
2023-04-15T16:43:18.151Z,6.63
2023-04-15T16:45:50.929Z,7.13
2023-04-15T16:48:20.594Z,7.63
2023-04-15T16:50:50.355Z,7.07
2023-04-15T16:53:18.775Z,7.57
2023-04-15T16:55:47.176Z,7.70
2023-04-15T16:58:15.875Z,7.67
2023-04-15T17:00:44.453Z,7.83
2023-04-15T17:03:13.098Z,8.57
2023-04-15T17:05:42.353Z,7.93
2023-04-15T17:08:12.252Z,7.57
2023-04-15T17:10:40.745Z,8.07
2023-04-15T17:13:09.140Z,8.63
2023-04-15T17:15:37.733Z,8.63
2023-04-15T17:18:06.501Z,7.87
2023-04-15T17:20:34.916Z,9.23
2023-04-15T17:23:03.498Z,9.00
2023-04-15T17:25:33.576Z,8.83
2023-04-15T17:28:02.563Z,9.47
2023-04-15T17:30:31.184Z,9.07
2023-04-15T17:32:59.554Z,9.33
2023-04-15T17:35:27.923Z,8.33
2023-04-15T17:37:56.303Z,9.70
2023-04-15T17:40:24.822Z,9.00
2023-04-15T17:42:54.634Z,8.93
2023-04-15T17:45:23.048Z,9.97
2023-04-15T17:47:51.625Z,10.00
2023-04-15T17:50:20.268Z,9.10
2023-04-15T17:52:48.822Z,9.67
2023-04-15T17:55:17.494Z,10.63
2023-04-15T17:57:47.128Z,9.80
2023-04-15T18:00:18.500Z,9.43
2023-04-15T18:02:48.701Z,9.63
2023-04-15T18:05:18.853Z,9.10
2023-04-15T18:07:47.506Z,9.43
2023-04-15T18:10:16.222Z,10.10
2023-04-15T18:12:44.762Z,9.50
2023-04-15T18:15:14.610Z,10.20
2023-04-15T18:17:44.128Z,10.30
2023-04-15T18:20:13.392Z,10.43
2023-04-15T18:22:42.315Z,10.00
2023-04-15T18:25:11.394Z,9.83
2023-04-15T18:27:40.266Z,9.90
2023-04-15T18:30:09.697Z,9.90
2023-04-15T18:32:38.288Z,10.13
2023-04-15T18:35:08.915Z,9.43
2023-04-15T18:37:37.425Z,10.37
2023-04-15T18:40:06.154Z,10.53
2023-04-15T18:42:34.507Z,10.80
2023-04-15T18:45:02.880Z,10.60
2023-04-15T18:47:31.619Z,10.97
2023-04-15T18:49:59.962Z,10.47
2023-04-15T18:52:29.811Z,9.93
2023-04-15T18:54:58.192Z,9.97
2023-04-15T18:57:32.740Z,10.67
2023-04-15T19:00:05.065Z,10.50
2023-04-15T19:02:33.523Z,10.97
2023-04-15T19:05:04.212Z,10.43
2023-04-15T19:07:33.832Z,10.40
2023-04-15T19:10:01.966Z,11.27
2023-04-15T19:12:30.444Z,11.00
2023-04-15T19:14:59.190Z,11.57
2023-04-15T19:17:27.746Z,11.17
2023-04-15T19:19:56.221Z,10.83
2023-04-15T19:22:24.567Z,11.30
2023-04-15T19:24:54.144Z,11.50
2023-04-15T19:27:22.573Z,11.10
2023-04-15T19:29:50.937Z,12.43
2023-04-15T19:32:19.105Z,12.63
2023-04-15T19:34:47.799Z,11.83
2023-04-15T19:37:16.368Z,12.30
2023-04-15T19:39:44.867Z,13.43
2023-04-15T19:42:14.604Z,12.90
2023-04-15T19:44:42.971Z,13.37
2023-04-15T19:47:11.507Z,13.13
2023-04-15T19:49:39.976Z,13.27
2023-04-15T19:52:08.344Z,14.17
2023-04-15T19:54:37.016Z,14.60
2023-04-15T19:57:05.470Z,14.13
2023-04-15T19:59:35.005Z,13.83
2023-04-15T20:02:03.613Z,13.80
2023-04-15T20:04:32.280Z,15.27
2023-04-15T20:07:01.102Z,14.30
2023-04-15T20:09:29.487Z,15.80
2023-04-15T20:12:47.887Z,14.87
2023-04-15T20:14:47.195Z,14.73
2023-04-15T20:17:16.640Z,15.37
2023-04-15T20:19:45.339Z,14.70
2023-04-15T20:22:13.943Z,15.63
2023-04-15T20:24:42.389Z,17.00
2023-04-15T20:27:10.969Z,14.50
2023-04-15T20:29:39.415Z,16.67
2023-04-15T20:32:11.462Z,15.60
2023-04-15T20:34:41.299Z,16.67
2023-04-15T20:37:09.859Z,16.80
2023-04-15T20:39:38.251Z,16.13
2023-04-15T20:42:10.260Z,15.80
2023-04-15T20:44:39.516Z,17.20
2023-04-15T20:47:09.256Z,16.50
2023-04-15T20:49:37.924Z,17.93
2023-04-15T20:52:06.966Z,17.47
2023-04-15T20:54:35.425Z,17.47
2023-04-15T20:57:04.083Z,17.33
2023-04-15T20:59:32.838Z,18.53
2023-04-15T21:02:01.432Z,18.97
2023-04-15T21:04:31.389Z,17.77
2023-04-15T21:06:59.745Z,17.83
2023-04-15T21:09:28.115Z,18.17
2023-04-15T21:12:01.746Z,19.73
2023-04-15T21:14:30.955Z,18.03
2023-04-15T21:16:59.546Z,16.73
2023-04-15T21:19:27.905Z,18.40
2023-04-15T21:21:57.732Z,19.27
2023-04-15T21:24:26.334Z,18.63
2023-04-15T21:26:54.718Z,19.73
2023-04-15T21:29:23.120Z,18.47
2023-04-15T21:31:51.484Z,20.07
2023-04-15T21:34:19.975Z,19.40
2023-04-15T21:36:48.632Z,18.77
2023-04-15T21:39:18.417Z,20.17
2023-04-15T21:41:46.907Z,20.17
2023-04-15T21:44:15.488Z,21.03
2023-04-15T21:46:46.044Z,19.63
2023-04-15T21:49:14.977Z,20.07
2023-04-15T21:51:43.730Z,19.33
2023-04-15T21:54:12.245Z,20.53
2023-04-15T21:56:42.364Z,18.87
2023-04-15T21:59:10.769Z,21.17
2023-04-15T22:01:39.249Z,19.43
2023-04-15T22:04:07.831Z,20.37
2023-04-15T22:06:36.412Z,19.93
2023-04-15T22:09:04.852Z,18.70
2023-04-15T22:11:33.219Z,19.20
2023-04-15T22:14:02.706Z,21.57
2023-04-15T22:16:31.518Z,20.73
2023-04-15T22:18:59.906Z,20.07
2023-04-15T22:21:28.304Z,19.00
2023-04-15T22:24:35.051Z,21.23
2023-04-15T22:26:45.463Z,19.40
2023-04-15T22:29:15.183Z,21.47
2023-04-15T22:31:43.813Z,19.33
2023-04-15T22:34:14.673Z,21.27
2023-04-15T22:36:42.727Z,21.10
2023-04-15T22:39:11.290Z,21.53
2023-04-15T22:41:39.654Z,19.90
2023-04-15T22:44:08.112Z,22.47
2023-04-15T22:46:38.310Z,19.70
2023-04-15T22:49:09.038Z,21.17
2023-04-15T22:51:38.533Z,19.77
2023-04-15T22:54:06.994Z,20.30
2023-04-15T22:56:35.503Z,20.93
2023-04-15T22:59:03.862Z,21.93
2023-04-15T23:01:32.405Z,21.03
2023-04-15T23:04:05.224Z,20.13
2023-04-15T23:06:35.791Z,19.87
2023-04-15T23:09:04.253Z,21.67
2023-04-15T23:11:33.218Z,22.53
2023-04-15T23:14:01.504Z,20.97
2023-04-15T23:16:30.079Z,22.63
2023-04-15T23:18:58.630Z,20.87
2023-04-15T23:21:29.054Z,21.93
2023-04-15T23:23:57.623Z,22.23
2023-04-15T23:26:27.356Z,23.17
2023-04-15T23:28:55.777Z,22.23
2023-04-15T23:31:24.641Z,22.93
2023-04-15T23:33:52.716Z,22.30
2023-04-15T23:36:21.052Z,21.93
2023-04-15T23:38:50.800Z,22.03
2023-04-15T23:41:19.187Z,23.37
2023-04-15T23:43:47.538Z,22.73
2023-04-15T23:46:16.957Z,21.60
2023-04-15T23:48:47.785Z,21.73
2023-04-15T23:51:16.509Z,21.93
2023-04-15T23:53:44.947Z,22.80
2023-04-15T23:56:15.808Z,22.10
2023-04-15T23:58:44.392Z,23.10
